Time;durP1;ratioP1;P1;durP2;ratioP2;P2;SDS_P1;SDS_P2;PMS_P1;PMS_P2;Temp;Humidity;BMP_temperature;BMP_pressure;BME280_temperature;BME280_humidity;BME280_pressure;Samples;Min_cycle;Max_cycle;Signal;HPM_P1;HPM_P2
2021/12/26 00:01:30;;;;;;;14.88;8.68;;;2.70;99.90;;;;;;5091443;28;20219;-60
2021/12/26 00:03:56;;;;;;;13.65;8.25;;;2.70;99.90;;;;;;5091644;28;20179;-59
2021/12/26 00:06:25;;;;;;;12.73;7.95;;;2.70;99.90;;;;;;5095838;28;20218;-59
2021/12/26 00:08:53;;;;;;;15.07;8.88;;;2.70;99.90;;;;;;5095426;28;20204;-59
2021/12/26 00:11:19;;;;;;;14.37;7.77;;;2.70;99.90;;;;;;5095481;28;20224;-60
2021/12/26 00:13:45;;;;;;;13.68;7.75;;;2.70;99.90;;;;;;5095890;28;20278;-60
2021/12/26 00:16:11;;;;;;;14.85;7.85;;;2.70;99.90;;;;;;5095275;28;20175;-60
2021/12/26 00:18:42;;;;;;;14.63;8.05;;;2.70;99.90;;;;;;5095313;28;20330;-59
2021/12/26 00:21:08;;;;;;;15.85;8.30;;;2.70;99.90;;;;;;5095488;28;20254;-60
2021/12/26 00:23:33;;;;;;;13.23;8.23;;;2.70;99.90;;;;;;5095881;28;20203;-60
2021/12/26 00:25:59;;;;;;;14.90;8.00;;;2.70;99.90;;;;;;5094729;28;20195;-59
2021/12/26 00:28:26;;;;;;;12.95;8.00;;;2.70;99.90;;;;;;5094281;28;20176;-59
2021/12/26 00:30:51;;;;;;;11.57;7.57;;;2.70;99.90;;;;;;5095698;28;20670;-60
2021/12/26 00:33:17;;;;;;;13.52;8.15;;;2.70;99.90;;;;;;5094427;28;20176;-60
2021/12/26 00:35:42;;;;;;;12.40;7.72;;;2.70;99.90;;;;;;5095388;28;20518;-59
2021/12/26 00:38:09;;;;;;;14.27;8.30;;;2.70;99.90;;;;;;5094751;28;20638;-60
2021/12/26 00:40:35;;;;;;;13.87;8.43;;;2.60;99.90;;;;;;5094592;28;20215;-59
2021/12/26 00:43:01;;;;;;;13.52;8.52;;;2.60;99.90;;;;;;5093989;28;20647;-59
2021/12/26 00:45:27;;;;;;;13.23;7.90;;;2.60;99.90;;;;;;5093858;28;20176;-60
2021/12/26 00:47:53;;;;;;;12.83;7.87;;;2.60;99.90;;;;;;5094303;28;20175;-60
2021/12/26 00:50:23;;;;;;;13.33;8.03;;;2.60;99.90;;;;;;5094150;28;20187;-59
2021/12/26 00:52:49;;;;;;;14.52;7.88;;;2.60;99.90;;;;;;5094765;28;20623;-60
2021/12/26 00:55:15;;;;;;;15.83;8.47;;;2.60;99.90;;;;;;5094004;28;20199;-60
2021/12/26 00:57:42;;;;;;;14.93;8.57;;;2.60;99.90;;;;;;5094633;28;20277;-60
2021/12/26 01:00:12;;;;;;;17.53;7.87;;;2.60;99.90;;;;;;5093559;28;20246;-60
2021/12/26 01:02:37;;;;;;;13.77;7.87;;;2.50;99.90;;;;;;5094176;28;20202;-60
2021/12/26 01:05:06;;;;;;;12.38;7.72;;;2.60;99.90;;;;;;5094286;28;20176;-60
2021/12/26 01:10:19;;;;;;;14.33;8.80;;;2.50;99.90;;;;;;5093581;28;20240;-59
2021/12/26 01:12:44;;;;;;;14.13;8.25;;;2.50;99.90;;;;;;5093647;28;20180;-60
2021/12/26 01:15:11;;;;;;;12.57;8.00;;;2.50;99.90;;;;;;5093478;28;20245;-60
2021/12/26 01:17:41;;;;;;;14.40;7.90;;;2.50;99.90;;;;;;5093015;28;20585;-60
2021/12/26 01:20:12;;;;;;;12.93;8.37;;;2.60;99.90;;;;;;5093737;28;20258;-60
2021/12/26 01:22:38;;;;;;;14.23;8.50;;;2.60;99.90;;;;;;5093755;28;20191;-60
2021/12/26 01:25:05;;;;;;;13.85;8.13;;;2.60;99.90;;;;;;5093499;28;20183;-60
2021/12/26 01:27:31;;;;;;;12.80;8.18;;;2.60;99.90;;;;;;5093182;28;20620;-60
2021/12/26 01:29:56;;;;;;;12.35;7.72;;;2.60;99.90;;;;;;5094354;28;20233;-60
2021/12/26 01:32:22;;;;;;;13.53;8.07;;;2.60;99.90;;;;;;5093573;28;20211;-60
2021/12/26 01:34:48;;;;;;;15.47;8.73;;;2.60;99.90;;;;;;5093222;28;20572;-60
2021/12/26 01:37:14;;;;;;;13.83;8.47;;;2.60;99.90;;;;;;5092839;28;20563;-60
2021/12/26 01:39:40;;;;;;;14.00;7.70;;;2.60;99.90;;;;;;5093481;28;20223;-60
2021/12/26 01:42:10;;;;;;;14.37;8.30;;;2.50;99.90;;;;;;5093329;28;20633;-60
2021/12/26 01:44:36;;;;;;;12.07;7.67;;;2.50;99.90;;;;;;5093297;28;20188;-60
2021/12/26 01:47:02;;;;;;;14.07;7.72;;;2.60;99.90;;;;;;5093602;28;20240;-60
2021/12/26 01:49:29;;;;;;;15.40;8.85;;;2.60;99.90;;;;;;5093154;28;20278;-60
2021/12/26 01:51:58;;;;;;;11.52;7.20;;;2.60;99.90;;;;;;5093292;28;20184;-60
2021/12/26 01:54:38;;;;;;;14.43;8.02;;;2.60;99.90;;;;;;5093302;28;21040;-60
2021/12/26 01:57:09;;;;;;;14.30;8.07;;;2.60;99.90;;;;;;5092699;28;20220;-60
2021/12/26 01:59:35;;;;;;;14.90;8.40;;;2.60;99.90;;;;;;5093702;28;20200;-58
2021/12/26 02:02:01;;;;;;;14.13;8.00;;;2.60;99.90;;;;;;5093356;28;20188;-58
2021/12/26 02:04:28;;;;;;;12.90;7.40;;;2.60;99.90;;;;;;5093405;28;20208;-58
2021/12/26 02:06:59;;;;;;;13.00;8.05;;;2.60;99.90;;;;;;5092321;28;20646;-58
2021/12/26 02:09:25;;;;;;;14.98;8.00;;;2.60;99.90;;;;;;5093268;28;20631;-58
2021/12/26 02:11:51;;;;;;;13.00;7.93;;;2.60;99.90;;;;;;5093058;28;20180;-58
2021/12/26 02:14:17;;;;;;;11.63;7.47;;;2.60;99.90;;;;;;5093400;28;20200;-58
2021/12/26 02:16:43;;;;;;;11.80;7.55;;;2.60;99.90;;;;;;5093184;28;20191;-58
2021/12/26 02:19:09;;;;;;;13.40;7.57;;;2.60;99.90;;;;;;5092835;28;20173;-59
2021/12/26 02:22:27;;;;;;;13.70;7.97;;;2.60;99.90;;;;;;5093409;28;20261;-59
2021/12/26 02:24:30;;;;;;;13.65;8.18;;;2.60;99.90;;;;;;5090605;28;20202;-58
2021/12/26 02:29:41;;;;;;;12.98;7.32;;;2.60;99.90;;;;;;5093214;28;20183;-58
2021/12/26 02:32:09;;;;;;;11.30;7.30;;;2.60;99.90;;;;;;5091747;28;20165;-59
2021/12/26 02:34:35;;;;;;;12.45;7.88;;;2.70;99.90;;;;;;5092794;28;20180;-58
2021/12/26 02:37:02;;;;;;;15.63;8.55;;;2.70;99.90;;;;;;5091420;28;20180;-59
2021/12/26 02:39:27;;;;;;;13.57;7.80;;;2.70;99.90;;;;;;5092779;28;20176;-58
2021/12/26 02:41:53;;;;;;;11.50;7.38;;;2.70;99.90;;;;;;5092871;28;20586;-58
2021/12/26 02:44:18;;;;;;;13.40;7.90;;;2.70;99.90;;;;;;5092782;28;20641;-58
2021/12/26 02:46:44;;;;;;;14.57;8.32;;;2.70;99.90;;;;;;5092621;28;20519;-58
2021/12/26 02:49:10;;;;;;;13.57;7.43;;;2.70;99.90;;;;;;5092600;28;20187;-59
2021/12/26 02:51:35;;;;;;;12.07;7.53;;;2.70;99.90;;;;;;5091105;28;20191;-59
2021/12/26 02:54:02;;;;;;;11.93;7.35;;;2.70;99.90;;;;;;5092051;28;20176;-58
2021/12/26 02:56:29;;;;;;;13.52;7.60;;;2.60;99.90;;;;;;5092473;28;20637;-59
2021/12/26 02:58:56;;;;;;;12.77;7.18;;;2.60;99.90;;;;;;5092433;28;20185;-58
2021/12/26 03:01:24;;;;;;;13.07;7.68;;;2.60;99.90;;;;;;5091995;28;20208;-59
2021/12/26 03:03:50;;;;;;;13.57;7.95;;;2.50;99.90;;;;;;5081388;28;20685;-58
2021/12/26 03:06:25;;;;;;;11.13;7.60;;;2.60;99.90;;;;;;5091271;28;20180;-59
2021/12/26 03:08:54;;;;;;;14.50;7.83;;;2.50;99.90;;;;;;5091901;28;20182;-59
2021/12/26 03:11:19;;;;;;;13.93;8.15;;;2.50;99.90;;;;;;5091900;28;20263;-59
2021/12/26 03:13:45;;;;;;;14.00;7.93;;;2.60;99.90;;;;;;5092131;28;20263;-59
2021/12/26 03:16:10;;;;;;;13.63;7.85;;;2.60;99.90;;;;;;5091803;28;20176;-58
2021/12/26 03:18:36;;;;;;;12.73;7.93;;;2.60;99.90;;;;;;5090750;28;20632;-58
2021/12/26 03:21:02;;;;;;;12.57;8.07;;;2.60;99.90;;;;;;5091930;28;20226;-58
2021/12/26 03:23:28;;;;;;;13.07;7.83;;;2.60;99.90;;;;;;5091877;28;20514;-59
2021/12/26 03:25:55;;;;;;;12.97;8.13;;;2.70;99.90;;;;;;5092201;28;20180;-58
2021/12/26 03:28:21;;;;;;;14.23;8.02;;;2.70;99.90;;;;;;5091536;28;20188;-58
2021/12/26 03:30:46;;;;;;;12.37;7.87;;;2.70;99.90;;;;;;5091948;28;20241;-58
2021/12/26 03:33:13;;;;;;;12.00;7.27;;;2.70;99.90;;;;;;5091194;28;20215;-59
2021/12/26 03:35:40;;;;;;;15.75;8.68;;;2.70;99.90;;;;;;5092122;28;20184;-58
2021/12/26 03:38:09;;;;;;;13.70;7.60;;;2.60;99.90;;;;;;5091755;28;20176;-59
2021/12/26 03:40:35;;;;;;;12.87;7.97;;;2.60;99.90;;;;;;5094718;28;20211;-58
2021/12/26 03:43:01;;;;;;;12.43;7.47;;;2.60;99.90;;;;;;5096395;28;20180;-59
2021/12/26 03:45:27;;;;;;;14.45;7.88;;;2.50;99.90;;;;;;5095458;28;20194;-58
2021/12/26 03:47:52;;;;;;;14.27;7.60;;;2.50;99.90;;;;;;5096350;28;20168;-58
2021/12/26 03:50:20;;;;;;;15.00;7.73;;;2.50;99.90;;;;;;5095443;28;20180;-59
2021/12/26 03:52:49;;;;;;;11.83;7.53;;;2.50;99.90;;;;;;5095714;28;20184;-60
2021/12/26 03:55:16;;;;;;;12.83;7.80;;;2.50;99.90;;;;;;5095651;28;20172;-59
2021/12/26 03:57:41;;;;;;;11.90;7.53;;;2.40;99.90;;;;;;5095776;28;20234;-59
2021/12/26 04:00:08;;;;;;;13.60;7.97;;;2.50;99.90;;;;;;5093987;28;20679;-59
2021/12/26 04:02:34;;;;;;;14.00;7.87;;;2.50;99.90;;;;;;5096397;28;20251;-59
2021/12/26 04:04:59;;;;;;;13.47;8.20;;;2.50;99.90;;;;;;5095326;28;20267;-59
2021/12/26 04:07:25;;;;;;;13.15;7.80;;;2.50;99.90;;;;;;5095828;28;20193;-59
2021/12/26 04:09:50;;;;;;;13.97;8.20;;;2.50;99.90;;;;;;5095534;28;20180;-59
2021/12/26 04:12:16;;;;;;;14.83;7.93;;;2.50;99.90;;;;;;5095435;28;20419;-59
2021/12/26 04:14:42;;;;;;;13.88;7.53;;;2.50;99.90;;;;;;5095551;28;20263;-59
2021/12/26 04:17:07;;;;;;;12.73;7.07;;;2.40;99.90;;;;;;5095235;28;20215;-60
2021/12/26 04:19:33;;;;;;;12.68;8.00;;;2.40;99.90;;;;;;5095281;28;20168;-59
2021/12/26 04:21:58;;;;;;;13.13;8.27;;;2.40;99.90;;;;;;5095197;28;20184;-59
2021/12/26 04:24:24;;;;;;;13.85;7.93;;;2.40;99.90;;;;;;5095142;28;20182;-59
2021/12/26 04:26:50;;;;;;;12.43;7.87;;;2.40;99.90;;;;;;5095535;28;20176;-60
2021/12/26 04:29:16;;;;;;;14.13;7.80;;;2.30;99.90;;;;;;5095240;28;20509;-60
2021/12/26 04:31:41;;;;;;;15.03;8.83;;;2.40;99.90;;;;;;5095306;28;20180;-60
2021/12/26 04:34:07;;;;;;;12.90;7.60;;;2.40;99.90;;;;;;5094916;28;20188;-60
2021/12/26 04:36:32;;;;;;;14.07;8.25;;;2.40;99.90;;;;;;5094905;28;20631;-60
2021/12/26 04:38:58;;;;;;;13.70;8.07;;;2.40;99.90;;;;;;5093669;28;20544;-58
2021/12/26 04:41:24;;;;;;;13.85;7.90;;;2.40;99.90;;;;;;5093576;28;20204;-58
2021/12/26 04:43:49;;;;;;;13.23;8.25;;;2.40;99.90;;;;;;5094820;28;20169;-59
2021/12/26 04:46:15;;;;;;;11.33;7.33;;;2.40;99.90;;;;;;5095051;28;20253;-58
2021/12/26 04:48:43;;;;;;;13.98;7.45;;;2.40;99.90;;;;;;5093385;28;20180;-58
2021/12/26 04:51:10;;;;;;;14.15;8.00;;;2.40;99.90;;;;;;5094979;28;20188;-58
2021/12/26 04:53:37;;;;;;;12.93;8.07;;;2.30;99.90;;;;;;5094727;28;20187;-58
2021/12/26 04:56:04;;;;;;;15.20;9.02;;;2.30;99.90;;;;;;5094663;28;20275;-59
2021/12/26 04:58:30;;;;;;;13.80;7.83;;;2.40;99.90;;;;;;5094761;28;20188;-58
2021/12/26 05:00:56;;;;;;;13.90;7.63;;;2.40;99.90;;;;;;5094002;28;20218;-58
2021/12/26 05:03:22;;;;;;;14.63;8.50;;;2.40;99.90;;;;;;5093017;28;20176;-58
2021/12/26 05:05:47;;;;;;;15.38;8.10;;;2.40;99.90;;;;;;5094783;28;20172;-58
2021/12/26 05:08:13;;;;;;;12.80;8.23;;;2.40;99.90;;;;;;5094188;28;20199;-58
2021/12/26 05:10:40;;;;;;;15.30;8.83;;;2.40;99.90;;;;;;5094152;28;20188;-58
2021/12/26 05:13:07;;;;;;;15.18;8.10;;;2.40;99.90;;;;;;5093572;28;20175;-59
2021/12/26 05:15:33;;;;;;;14.73;8.02;;;2.40;99.90;;;;;;5094077;28;20176;-58
2021/12/26 05:17:59;;;;;;;14.13;8.23;;;2.40;99.90;;;;;;5094692;28;20258;-58
2021/12/26 05:20:26;;;;;;;14.20;7.80;;;2.40;99.90;;;;;;5094028;28;20299;-58
2021/12/26 05:22:55;;;;;;;12.88;7.88;;;2.30;99.90;;;;;;5094092;28;20540;-58
2021/12/26 05:25:22;;;;;;;15.73;8.40;;;2.40;99.90;;;;;;5093159;28;20188;-58
2021/12/26 05:27:48;;;;;;;13.97;8.07;;;2.40;99.90;;;;;;5094048;28;20191;-58
2021/12/26 05:30:17;;;;;;;15.07;8.65;;;2.40;99.90;;;;;;5094052;28;20598;-58
2021/12/26 05:32:44;;;;;;;14.23;8.65;;;2.40;99.90;;;;;;5093618;28;20180;-58
2021/12/26 05:35:10;;;;;;;17.10;8.55;;;2.40;99.90;;;;;;5092251;28;20228;-58
2021/12/26 05:37:37;;;;;;;14.95;8.32;;;2.40;99.90;;;;;;5094113;28;20184;-58
2021/12/26 05:40:05;;;;;;;14.20;8.77;;;2.40;99.90;;;;;;5091904;28;20208;-58
2021/12/26 05:42:32;;;;;;;14.18;8.35;;;2.40;99.90;;;;;;5093402;28;20296;-58
2021/12/26 05:44:58;;;;;;;14.70;8.20;;;2.40;99.90;;;;;;5093187;28;20643;-58
2021/12/26 05:47:24;;;;;;;19.35;9.57;;;2.40;99.90;;;;;;5093433;28;20193;-59
2021/12/26 05:49:50;;;;;;;14.63;7.78;;;2.40;99.90;;;;;;5093382;28;20179;-59
2021/12/26 05:52:18;;;;;;;14.45;8.55;;;2.40;99.90;;;;;;5093528;28;20188;-59
2021/12/26 05:54:44;;;;;;;15.13;9.00;;;2.40;99.90;;;;;;5093680;28;20191;-59
2021/12/26 05:57:10;;;;;;;16.77;9.00;;;2.40;99.90;;;;;;5092887;28;20246;-59
2021/12/26 05:59:36;;;;;;;15.07;8.73;;;2.50;99.90;;;;;;5093233;28;20631;-59
2021/12/26 06:02:02;;;;;;;15.13;8.70;;;2.50;99.90;;;;;;5092859;28;20235;-59
2021/12/26 06:04:27;;;;;;;15.45;8.95;;;2.50;99.90;;;;;;5093644;28;20200;-60
2021/12/26 06:06:53;;;;;;;17.05;8.65;;;2.50;99.90;;;;;;5093305;28;20184;-60
2021/12/26 06:09:19;;;;;;;16.65;8.70;;;2.50;99.90;;;;;;5093086;28;20233;-60
2021/12/26 06:11:44;;;;;;;17.52;9.20;;;2.50;99.90;;;;;;5093320;28;20191;-59
2021/12/26 06:14:10;;;;;;;13.95;8.13;;;2.50;99.90;;;;;;5092868;28;20222;-60
2021/12/26 06:16:36;;;;;;;13.75;8.02;;;2.50;99.90;;;;;;5093277;28;20710;-60
2021/12/26 06:19:02;;;;;;;14.67;9.17;;;2.50;99.90;;;;;;5092656;28;20601;-60
2021/12/26 06:21:28;;;;;;;15.02;8.70;;;2.50;99.90;;;;;;5092788;28;20254;-60
2021/12/26 06:23:53;;;;;;;14.52;8.43;;;2.50;99.90;;;;;;5092462;28;20203;-59
2021/12/26 06:26:24;;;;;;;13.05;7.88;;;2.50;99.90;;;;;;5093113;28;20262;-59
2021/12/26 06:28:50;;;;;;;14.23;8.43;;;2.50;99.90;;;;;;5092719;28;20176;-59
2021/12/26 06:31:16;;;;;;;14.77;8.15;;;2.50;99.90;;;;;;5092801;28;20176;-60
2021/12/26 06:33:43;;;;;;;13.13;8.30;;;2.50;99.90;;;;;;5092927;28;20188;-60
2021/12/26 06:36:09;;;;;;;14.68;8.35;;;2.50;99.90;;;;;;5092490;28;20187;-60
2021/12/26 06:38:36;;;;;;;14.77;8.20;;;2.50;99.90;;;;;;5093189;28;20183;-60
2021/12/26 06:41:03;;;;;;;14.50;8.37;;;2.50;99.90;;;;;;5092371;28;20219;-60
2021/12/26 06:43:29;;;;;;;14.52;7.82;;;2.50;99.90;;;;;;5092106;28;20186;-60
2021/12/26 06:45:55;;;;;;;16.13;8.73;;;2.50;99.90;;;;;;5092857;28;20172;-60
2021/12/26 06:48:21;;;;;;;13.90;8.67;;;2.50;99.90;;;;;;5092099;28;20241;-60
2021/12/26 06:50:48;;;;;;;15.17;8.73;;;2.50;99.90;;;;;;5092546;28;20707;-60
2021/12/26 06:53:14;;;;;;;17.27;8.93;;;2.50;99.90;;;;;;5092098;28;20647;-60
2021/12/26 06:55:40;;;;;;;15.98;8.55;;;2.50;99.90;;;;;;5092343;28;20237;-60
2021/12/26 06:58:05;;;;;;;17.33;9.10;;;2.50;99.90;;;;;;5091038;28;20224;-60
2021/12/26 07:00:31;;;;;;;16.73;9.10;;;2.40;99.90;;;;;;5091025;28;20553;-60
2021/12/26 07:02:57;;;;;;;17.70;9.87;;;2.50;99.90;;;;;;5092237;28;20177;-60
2021/12/26 07:05:23;;;;;;;15.10;8.77;;;2.50;99.90;;;;;;5092293;28;20176;-60
2021/12/26 07:07:48;;;;;;;17.80;9.30;;;2.50;99.90;;;;;;5092552;28;20172;-60
2021/12/26 07:10:14;;;;;;;14.45;8.45;;;2.50;99.90;;;;;;5091801;28;20568;-60
2021/12/26 07:12:41;;;;;;;15.57;8.95;;;2.50;99.90;;;;;;5091819;28;20263;-60
2021/12/26 07:15:07;;;;;;;16.73;9.53;;;2.50;99.90;;;;;;5089763;28;20216;-60
2021/12/26 07:17:32;;;;;;;16.33;8.40;;;2.50;99.90;;;;;;5094002;28;20173;-60
2021/12/26 07:19:58;;;;;;;16.93;8.97;;;2.50;99.90;;;;;;5091650;28;20199;-60
2021/12/26 07:22:24;;;;;;;18.27;9.80;;;2.50;99.90;;;;;;5092046;28;20643;-60
2021/12/26 07:24:49;;;;;;;17.13;9.23;;;2.50;99.90;;;;;;5092247;28;20270;-60
2021/12/26 07:27:16;;;;;;;18.05;9.02;;;2.60;99.90;;;;;;5091991;28;20638;-60
2021/12/26 07:29:42;;;;;;;18.27;9.95;;;2.50;99.90;;;;;;5091753;28;20183;-60
2021/12/26 07:32:09;;;;;;;15.80;9.00;;;2.50;99.90;;;;;;5091804;28;20218;-60
2021/12/26 07:34:35;;;;;;;16.27;9.30;;;2.60;99.90;;;;;;5100193;28;20328;-60
2021/12/26 07:37:02;;;;;;;17.23;9.13;;;2.60;99.90;;;;;;5091886;28;20690;-60
2021/12/26 07:39:28;;;;;;;15.33;9.40;;;2.60;99.90;;;;;;5090505;28;20176;-60
2021/12/26 07:41:53;;;;;;;15.82;9.23;;;2.60;99.90;;;;;;5092179;28;20668;-59
2021/12/26 07:44:19;;;;;;;16.17;9.45;;;2.70;99.90;;;;;;5091846;28;20229;-59
2021/12/26 07:46:45;;;;;;;14.73;8.70;;;2.70;99.90;;;;;;5090975;28;20179;-59
2021/12/26 07:49:10;;;;;;;15.68;8.85;;;2.70;99.90;;;;;;5090703;28;20180;-60
2021/12/26 07:51:36;;;;;;;13.40;8.52;;;2.70;99.90;;;;;;5091364;28;20178;-60
2021/12/26 07:54:02;;;;;;;14.70;8.85;;;2.70;99.90;;;;;;5091792;28;20188;-59
2021/12/26 07:56:31;;;;;;;15.57;8.82;;;2.70;99.90;;;;;;5091486;28;20220;-60
2021/12/26 07:58:57;;;;;;;14.65;8.65;;;2.80;99.90;;;;;;5090905;28;20212;-60
2021/12/26 08:01:26;;;;;;;15.35;8.75;;;2.80;99.90;;;;;;5091466;28;20264;-60
2021/12/26 08:03:52;;;;;;;14.88;9.02;;;2.80;99.90;;;;;;5091419;28;20176;-60
2021/12/26 08:06:19;;;;;;;18.63;8.82;;;2.90;99.90;;;;;;5089538;28;20188;-58
2021/12/26 08:08:48;;;;;;;16.90;9.02;;;2.90;99.90;;;;;;5091587;28;20215;-58
2021/12/26 08:11:14;;;;;;;18.58;9.38;;;2.90;99.90;;;;;;5091714;28;20179;-60
2021/12/26 08:13:41;;;;;;;19.88;9.35;;;2.90;99.90;;;;;;5091385;28;20184;-59
2021/12/26 08:16:06;;;;;;;17.70;9.35;;;3.00;99.90;;;;;;5091319;28;20195;-59
2021/12/26 08:18:32;;;;;;;16.00;8.75;;;3.00;99.90;;;;;;5090968;28;20188;-61
2021/12/26 08:20:58;;;;;;;15.85;9.73;;;3.00;99.90;;;;;;5086928;28;20220;-59
2021/12/26 08:23:24;;;;;;;18.15;9.43;;;3.00;99.90;;;;;;5091220;28;20180;-59
2021/12/26 08:25:49;;;;;;;15.57;8.50;;;3.10;99.90;;;;;;5092722;28;20261;-59
2021/12/26 08:28:15;;;;;;;15.73;9.55;;;3.10;99.90;;;;;;5095094;28;20210;-59
2021/12/26 08:30:42;;;;;;;17.23;9.50;;;3.10;99.90;;;;;;5094976;28;20275;-60
2021/12/26 08:33:08;;;;;;;17.10;8.95;;;3.10;99.90;;;;;;5092972;28;20192;-61
2021/12/26 08:35:35;;;;;;;17.60;10.02;;;3.20;99.90;;;;;;5095012;28;20187;-60
2021/12/26 08:38:01;;;;;;;18.87;8.77;;;3.20;99.90;;;;;;5094860;28;20191;-60
2021/12/26 08:40:27;;;;;;;18.95;9.52;;;3.20;99.90;;;;;;5094897;28;20208;-61
2021/12/26 08:42:52;;;;;;;19.15;9.63;;;3.20;99.90;;;;;;5095061;28;20263;-60
2021/12/26 08:45:18;;;;;;;16.25;8.95;;;3.30;99.90;;;;;;5094860;28;20180;-60
2021/12/26 08:47:44;;;;;;;17.15;9.27;;;3.30;99.90;;;;;;5094567;28;20194;-60
2021/12/26 08:50:11;;;;;;;19.88;10.00;;;3.30;99.90;;;;;;5094873;28;20694;-60
2021/12/26 08:52:38;;;;;;;18.25;9.60;;;3.40;99.90;;;;;;5094887;28;20247;-60
2021/12/26 08:55:04;;;;;;;17.58;9.45;;;3.50;99.90;;;;;;5094336;28;20185;-60
2021/12/26 08:57:32;;;;;;;21.17;10.20;;;3.50;99.90;;;;;;5074265;28;20679;-61
2021/12/26 08:59:58;;;;;;;16.65;9.32;;;3.50;99.90;;;;;;5094201;28;20256;-60
2021/12/26 09:02:23;;;;;;;17.88;9.38;;;3.60;99.90;;;;;;5094139;28;20267;-60
2021/12/26 09:04:49;;;;;;;17.67;9.80;;;3.70;99.90;;;;;;5094506;28;20268;-60
2021/12/26 09:07:15;;;;;;;16.63;8.95;;;3.70;99.90;;;;;;5094392;28;20196;-60
2021/12/26 09:09:41;;;;;;;17.52;9.02;;;3.70;99.90;;;;;;5094510;28;20180;-60
2021/12/26 09:12:07;;;;;;;16.70;8.80;;;3.70;99.90;;;;;;5094409;28;20662;-60
2021/12/26 09:14:33;;;;;;;16.17;8.85;;;3.70;99.90;;;;;;5093632;28;20271;-59
2021/12/26 09:17:00;;;;;;;19.13;10.07;;;3.70;99.90;;;;;;5093878;28;20310;-59
2021/12/26 09:19:28;;;;;;;16.27;9.55;;;3.70;99.90;;;;;;5093790;28;20188;-59
2021/12/26 09:21:59;;;;;;;19.92;9.00;;;3.80;99.90;;;;;;5093759;28;20577;-59
2021/12/26 09:24:26;;;;;;;14.98;9.15;;;3.90;99.90;;;;;;5093066;28;20654;-60
2021/12/26 09:26:52;;;;;;;17.30;9.85;;;4.00;99.90;;;;;;5093334;28;20233;-61
2021/12/26 09:29:18;;;;;;;18.48;9.40;;;4.10;99.90;;;;;;5094005;28;20240;-61
2021/12/26 09:31:44;;;;;;;18.38;8.50;;;4.10;99.90;;;;;;5093474;28;20646;-58
2021/12/26 09:34:09;;;;;;;15.77;9.20;;;4.20;99.90;;;;;;5093831;28;20176;-59
2021/12/26 09:36:35;;;;;;;16.77;9.65;;;4.20;99.90;;;;;;5091910;28;20225;-60
2021/12/26 09:39:02;;;;;;;15.18;8.80;;;4.20;99.90;;;;;;5095095;28;20184;-60
2021/12/26 09:41:28;;;;;;;15.80;9.68;;;4.20;99.90;;;;;;5096494;28;20216;-60
2021/12/26 09:43:53;;;;;;;20.27;10.27;;;4.20;99.90;;;;;;5094110;28;20180;-59
2021/12/26 09:46:19;;;;;;;27.55;14.00;;;4.20;99.90;;;;;;5093035;28;20176;-59
2021/12/26 09:48:45;;;;;;;68.70;28.13;;;4.20;99.90;;;;;;5093765;28;20268;-59
2021/12/26 09:51:10;;;;;;;36.88;16.98;;;4.30;99.90;;;;;;5093126;28;20236;-60
2021/12/26 09:53:39;;;;;;;19.60;10.68;;;4.30;99.90;;;;;;5093555;28;20196;-60
2021/12/26 09:56:06;;;;;;;26.27;13.02;;;4.40;99.90;;;;;;5097110;28;20549;-60
2021/12/26 09:58:32;;;;;;;22.35;12.02;;;4.40;99.90;;;;;;5093189;28;20561;-60
2021/12/26 10:00:57;;;;;;;18.95;10.60;;;4.40;99.90;;;;;;5092996;28;20208;-59
2021/12/26 10:03:33;;;;;;;29.40;14.63;;;4.40;99.90;;;;;;5092143;28;20184;-60
2021/12/26 10:06:14;;;;;;;26.55;11.82;;;4.50;99.90;;;;;;5093484;28;20215;-59
2021/12/26 10:09:07;;;;;;;17.13;10.10;;;4.60;99.90;;;;;;5091932;28;20207;-59
2021/12/26 10:11:48;;;;;;;18.58;10.55;;;4.60;99.90;;;;;;5093104;28;20665;-62
2021/12/26 10:14:17;;;;;;;17.48;10.23;;;4.80;99.90;;;;;;5090048;28;20268;-60
2021/12/26 10:17:13;;;;;;;21.42;11.93;;;4.90;99.90;;;;;;5075783;28;20203;-60
2021/12/26 10:19:45;;;;;;;23.83;11.60;;;5.00;99.90;;;;;;5092574;28;20187;-60
2021/12/26 10:22:22;;;;;;;19.40;10.43;;;5.10;99.90;;;;;;5093040;28;20261;-60
2021/12/26 10:24:49;;;;;;;19.75;10.63;;;5.20;99.90;;;;;;5095014;28;20184;-60
2021/12/26 10:27:32;;;;;;;22.13;11.23;;;5.30;99.90;;;;;;5073133;28;20559;-60
2021/12/26 10:29:59;;;;;;;21.48;11.30;;;5.50;99.90;;;;;;5098639;28;20183;-60
2021/12/26 10:32:29;;;;;;;17.92;9.27;;;5.50;99.90;;;;;;5092780;28;20180;-60
2021/12/26 10:35:18;;;;;;;18.23;10.35;;;5.70;99.90;;;;;;5092451;28;20172;-61
2021/12/26 10:37:52;;;;;;;17.50;8.77;;;5.70;99.90;;;;;;5088023;28;20876;-59
2021/12/26 10:40:21;;;;;;;17.20;9.63;;;5.70;99.90;;;;;;5092650;28;20215;-59
2021/12/26 10:42:51;;;;;;;13.52;8.43;;;5.60;99.90;;;;;;5092679;28;20570;-59
2021/12/26 10:45:20;;;;;;;18.25;9.25;;;5.50;99.90;;;;;;5092303;28;20180;-59
2021/12/26 10:47:51;;;;;;;20.08;9.98;;;5.40;99.90;;;;;;5092701;28;20187;-59
2021/12/26 10:50:20;;;;;;;18.25;9.98;;;5.40;99.90;;;;;;5092302;28;20638;-59
2021/12/26 10:52:59;;;;;;;19.38;10.25;;;5.40;99.90;;;;;;5092079;28;20259;-59
2021/12/26 10:55:39;;;;;;;18.17;10.13;;;5.50;99.90;;;;;;5085033;28;20241;-59
2021/12/26 10:58:08;;;;;;;18.63;10.27;;;5.50;99.90;;;;;;5091584;28;20219;-59
2021/12/26 11:00:42;;;;;;;15.32;9.18;;;5.40;99.90;;;;;;5091913;28;20227;-59
2021/12/26 11:03:29;;;;;;;17.45;9.88;;;5.30;99.90;;;;;;5091992;28;20260;-60
2021/12/26 11:06:10;;;;;;;51.75;25.80;;;5.20;99.90;;;;;;5092278;28;20191;-58
2021/12/26 11:08:41;;;;;;;37.50;20.30;;;5.70;99.90;;;;;;5092233;28;20184;-58
2021/12/26 11:11:22;;;;;;;23.40;12.93;;;6.40;99.90;;;;;;5092042;28;20180;-58
2021/12/26 11:13:50;;;;;;;24.02;13.45;;;7.40;99.90;;;;;;5092217;28;20666;-59
2021/12/26 11:16:16;;;;;;;23.80;12.73;;;8.10;99.90;;;;;;5092078;28;20742;-59
2021/12/26 11:18:42;;;;;;;21.08;11.93;;;8.70;99.90;;;;;;5092207;28;20589;-59
2021/12/26 11:21:12;;;;;;;14.13;8.50;;;9.30;99.90;;;;;;5091682;28;20211;-60
2021/12/26 11:23:39;;;;;;;16.15;8.98;;;9.20;99.90;;;;;;5091932;28;20233;-60
2021/12/26 11:26:13;;;;;;;16.98;10.00;;;8.80;99.90;;;;;;5089843;28;20720;-60
2021/12/26 11:28:41;;;;;;;15.13;8.45;;;8.20;99.90;;;;;;5092209;28;20176;-60
2021/12/26 11:31:10;;;;;;;17.48;10.45;;;7.80;99.90;;;;;;5091656;28;20183;-60
2021/12/26 11:33:36;;;;;;;17.38;9.75;;;7.40;99.90;;;;;;5091678;28;20225;-60
2021/12/26 11:36:04;;;;;;;16.35;8.93;;;7.10;99.90;;;;;;5091931;28;20638;-60
2021/12/26 11:38:30;;;;;;;14.50;9.38;;;6.90;99.90;;;;;;5092049;28;20379;-60
2021/12/26 11:41:01;;;;;;;15.07;9.02;;;6.70;99.90;;;;;;5091961;28;20303;-60
2021/12/26 11:43:52;;;;;;;16.50;9.85;;;6.40;99.90;;;;;;5091422;28;20172;-60
2021/12/26 11:46:17;;;;;;;19.52;9.45;;;6.30;99.90;;;;;;5091891;28;20267;-60
2021/12/26 11:49:23;;;;;;;17.15;8.80;;;6.20;99.90;;;;;;5091974;28;20267;-60
2021/12/26 11:52:03;;;;;;;16.58;9.73;;;6.00;99.90;;;;;;5091091;28;20542;-61
2021/12/26 11:54:46;;;;;;;19.02;10.30;;;5.90;99.90;;;;;;5091251;28;20208;-61
2021/12/26 11:57:27;;;;;;;18.00;10.15;;;5.80;99.90;;;;;;5091875;28;20219;-60
2021/12/26 12:00:03;;;;;;;16.45;9.32;;;5.80;99.90;;;;;;5090079;28;20211;-62
2021/12/26 12:02:53;;;;;;;21.17;10.68;;;5.70;99.90;;;;;;5096106;28;20175;-60
2021/12/26 12:05:40;;;;;;;16.92;9.45;;;5.70;99.90;;;;;;5094195;28;20275;-60
2021/12/26 12:08:09;;;;;;;15.82;9.48;;;5.70;99.90;;;;;;5096951;28;20207;-62
2021/12/26 12:10:52;;;;;;;17.00;10.38;;;5.70;99.90;;;;;;5094015;28;20172;-61
2021/12/26 12:13:27;;;;;;;19.45;10.50;;;5.70;99.90;;;;;;5095443;28;20563;-61
2021/12/26 12:16:03;;;;;;;19.02;10.35;;;5.60;99.90;;;;;;5095773;28;20174;-61
2021/12/26 12:18:28;;;;;;;17.67;10.18;;;5.60;99.90;;;;;;5095384;28;20215;-61
2021/12/26 12:21:20;;;;;;;18.08;9.88;;;5.60;99.90;;;;;;5095238;28;20243;-60
2021/12/26 12:24:14;;;;;;;18.95;9.77;;;5.60;99.90;;;;;;5092710;28;20701;-61
2021/12/26 12:26:50;;;;;;;18.05;10.65;;;5.60;99.90;;;;;;5076674;28;20177;-62
2021/12/26 12:29:28;;;;;;;19.90;10.68;;;5.60;99.90;;;;;;5091910;28;20651;-60
2021/12/26 12:32:08;;;;;;;20.15;10.70;;;5.60;99.90;;;;;;5094897;28;20179;-60
2021/12/26 12:34:57;;;;;;;20.13;10.88;;;5.60;99.90;;;;;;5095344;28;20241;-60
2021/12/26 12:37:46;;;;;;;21.60;10.65;;;5.60;99.90;;;;;;5092764;28;20560;-61
2021/12/26 12:40:36;;;;;;;22.92;11.50;;;5.50;99.90;;;;;;5084497;28;20210;-61
2021/12/26 12:43:15;;;;;;;21.40;11.27;;;5.60;99.90;;;;;;5094767;28;20287;-61
2021/12/26 12:45:57;;;;;;;18.65;9.63;;;5.60;99.90;;;;;;5094880;28;20172;-61
2021/12/26 12:48:40;;;;;;;19.23;10.25;;;5.70;99.90;;;;;;5093804;28;20184;-61
2021/12/26 12:51:15;;;;;;;19.45;10.25;;;5.70;99.90;;;;;;5094162;28;20208;-61
2021/12/26 12:53:50;;;;;;;22.13;9.95;;;5.70;99.90;;;;;;5095154;28;20229;-61
2021/12/26 12:56:32;;;;;;;19.55;9.98;;;5.70;99.90;;;;;;5094399;28;20254;-61
2021/12/26 12:59:12;;;;;;;21.10;11.05;;;5.70;99.90;;;;;;5095171;28;20182;-61